createdAt,value
2018-07-11T00:00:48.568Z,17.00
2018-07-11T00:03:17.811Z,17.30
2018-07-11T00:05:46.063Z,17.20
2018-07-11T00:08:14.344Z,17.51
2018-07-11T00:10:42.571Z,17.56
2018-07-11T00:13:10.869Z,17.55
2018-07-11T00:15:39.228Z,17.74
2018-07-11T00:18:07.537Z,17.64
2018-07-11T00:20:35.777Z,17.51
2018-07-11T00:23:04.016Z,17.46
2018-07-11T00:25:32.255Z,17.50
2018-07-11T00:28:00.495Z,17.63
2018-07-11T00:30:28.785Z,17.66
2018-07-11T00:32:56.996Z,17.65
2018-07-11T00:35:25.236Z,17.53
2018-07-11T00:37:53.648Z,17.63
2018-07-11T00:40:21.876Z,17.34
2018-07-11T00:42:50.098Z,17.66
2018-07-11T00:45:18.330Z,17.63
2018-07-11T00:47:46.550Z,17.68
2018-07-11T00:50:14.769Z,17.68
2018-07-11T00:52:42.962Z,17.59
2018-07-11T00:55:11.327Z,17.69
2018-07-11T00:57:39.576Z,17.62
2018-07-11T01:00:08.106Z,17.73
2018-07-11T01:02:36.328Z,17.48
2018-07-11T01:05:04.569Z,17.66
2018-07-11T01:07:32.841Z,17.46
2018-07-11T01:10:01.367Z,17.68
2018-07-11T01:12:29.610Z,17.66
2018-07-11T01:14:58.024Z,17.70
2018-07-11T01:17:31.506Z,17.62
2018-07-11T01:19:59.735Z,17.57
2018-07-11T01:22:27.992Z,17.39
2018-07-11T01:24:56.343Z,17.60
2018-07-11T01:27:24.590Z,17.64
2018-07-11T01:29:52.860Z,17.40
2018-07-11T01:32:21.118Z,17.28
2018-07-11T01:34:49.320Z,17.41
2018-07-11T01:37:17.566Z,17.54
2018-07-11T01:39:45.789Z,17.55
2018-07-11T01:42:13.973Z,17.43
2018-07-11T01:44:42.779Z,17.37
2018-07-11T01:47:11.054Z,17.50
2018-07-11T01:49:39.319Z,17.33
2018-07-11T01:52:18.857Z,17.48
2018-07-11T01:54:47.080Z,17.51
2018-07-11T01:57:15.302Z,17.48
2018-07-11T01:59:43.541Z,17.42
2018-07-11T02:02:11.744Z,17.43
2018-07-11T02:04:40.588Z,17.45
2018-07-11T02:07:09.316Z,17.37
2018-07-11T02:09:37.528Z,17.40
2018-07-11T02:12:06.160Z,17.44
2018-07-11T02:14:35.308Z,17.44
2018-07-11T02:17:03.880Z,17.43
2018-07-11T02:19:32.125Z,17.44
2018-07-11T02:22:00.399Z,17.40
2018-07-11T02:24:28.631Z,17.42
2018-07-11T02:26:56.896Z,17.52
2018-07-11T02:29:25.836Z,17.38
2018-07-11T02:31:54.122Z,17.12
2018-07-11T02:34:26.541Z,17.39
2018-07-11T02:36:56.406Z,17.34
2018-07-11T02:39:25.895Z,17.05
2018-07-11T02:41:54.768Z,17.06
2018-07-11T02:44:23.863Z,17.02
2018-07-11T02:46:57.715Z,16.98
2018-07-11T02:49:26.822Z,17.15
2018-07-11T02:51:55.729Z,17.10
2018-07-11T02:54:24.843Z,17.18
2018-07-11T02:56:54.271Z,17.19
2018-07-11T02:59:23.822Z,17.26
2018-07-11T03:01:52.970Z,17.17
2018-07-11T03:04:21.941Z,17.18
2018-07-11T03:06:51.077Z,17.10
2018-07-11T03:09:20.079Z,17.16
2018-07-11T03:11:48.856Z,16.90
2018-07-11T03:14:17.835Z,17.12
2018-07-11T03:16:46.478Z,17.16
2018-07-11T03:19:15.425Z,17.07
2018-07-11T03:21:44.129Z,17.04
2018-07-11T03:24:13.518Z,17.10
2018-07-11T03:26:42.333Z,17.12
2018-07-11T03:29:11.840Z,17.09
2018-07-11T03:31:40.708Z,17.14
2018-07-11T03:34:09.600Z,17.27
2018-07-11T03:36:38.815Z,16.89
2018-07-11T03:39:08.651Z,16.78
2018-07-11T03:41:37.493Z,16.67
2018-07-11T03:44:07.062Z,16.42
2018-07-11T03:46:36.109Z,16.80
2018-07-11T03:49:04.918Z,16.92
2018-07-11T03:51:35.155Z,16.86
2018-07-11T03:54:04.380Z,16.88
2018-07-11T03:56:33.094Z,16.94
2018-07-11T03:59:01.792Z,16.89
2018-07-11T04:01:30.859Z,17.07
2018-07-11T04:03:59.635Z,16.85
2018-07-11T04:06:28.635Z,16.82
2018-07-11T04:08:56.899Z,16.92
2018-07-11T04:11:25.929Z,17.08
2018-07-11T04:13:54.974Z,16.91
2018-07-11T04:16:23.975Z,16.98
2018-07-11T04:18:53.056Z,17.02
2018-07-11T04:21:22.341Z,17.01
2018-07-11T04:23:51.364Z,16.80
2018-07-11T04:26:20.194Z,17.07
2018-07-11T04:28:48.891Z,16.95
2018-07-11T04:31:17.136Z,16.88
2018-07-11T04:33:45.342Z,17.01
2018-07-11T04:36:13.565Z,17.00
2018-07-11T04:38:41.814Z,16.77
2018-07-11T04:41:10.265Z,17.01
2018-07-11T04:43:38.564Z,16.97
2018-07-11T04:46:06.865Z,16.99
2018-07-11T04:48:35.485Z,16.83
2018-07-11T04:51:03.722Z,16.85
2018-07-11T04:53:31.930Z,16.43
2018-07-11T04:56:01.970Z,16.59
2018-07-11T04:58:30.866Z,16.59
2018-07-11T05:01:00.247Z,16.77
2018-07-11T05:03:29.022Z,16.86
2018-07-11T05:05:57.286Z,16.65
2018-07-11T05:08:26.101Z,16.67
2018-07-11T05:10:54.560Z,16.88
2018-07-11T05:13:23.085Z,16.89
2018-07-11T05:15:51.328Z,16.92
2018-07-11T05:18:19.534Z,16.78
2018-07-11T05:20:47.912Z,16.66
2018-07-11T05:23:16.602Z,16.72
2018-07-11T05:25:45.140Z,16.83
2018-07-11T05:28:13.447Z,16.58
2018-07-11T05:30:41.665Z,16.64
2018-07-11T05:33:09.896Z,16.46
2018-07-11T05:35:38.102Z,16.75
2018-07-11T05:38:06.385Z,16.83
2018-07-11T05:40:34.580Z,16.83
2018-07-11T05:43:02.845Z,16.78
2018-07-11T05:45:31.244Z,16.84
2018-07-11T05:47:59.498Z,16.68
2018-07-11T05:50:27.705Z,16.70
2018-07-11T05:52:55.959Z,16.97
2018-07-11T05:55:24.166Z,16.97
2018-07-11T05:57:52.489Z,16.89
2018-07-11T06:00:20.747Z,16.85
2018-07-11T06:02:48.965Z,16.81
2018-07-11T06:05:17.157Z,16.92
2018-07-11T06:07:45.373Z,16.79
2018-07-11T06:10:13.633Z,16.96
2018-07-11T06:12:41.825Z,17.00
2018-07-11T06:15:10.048Z,17.02
2018-07-11T06:17:38.246Z,16.93
2018-07-11T06:20:06.977Z,17.08
2018-07-11T06:22:35.712Z,17.02
2018-07-11T06:25:03.935Z,17.05
2018-07-11T06:27:32.184Z,17.23
2018-07-11T06:30:00.364Z,17.23
2018-07-11T06:32:28.656Z,17.25
2018-07-11T06:34:56.879Z,17.36
2018-07-11T06:37:25.135Z,17.13
2018-07-11T06:39:53.396Z,17.03
2018-07-11T06:42:21.718Z,17.00
2018-07-11T06:44:49.919Z,17.06
2018-07-11T06:47:18.174Z,17.29
2018-07-11T06:49:47.455Z,17.23
2018-07-11T06:52:16.217Z,17.28
2018-07-11T06:54:44.447Z,17.28
2018-07-11T06:57:12.692Z,17.27
2018-07-11T06:59:40.944Z,17.36
2018-07-11T07:02:09.169Z,17.46
2018-07-11T07:04:38.021Z,17.31
2018-07-11T07:07:06.245Z,17.29
2018-07-11T07:09:34.497Z,17.46
2018-07-11T07:12:02.683Z,17.49
2018-07-11T07:14:31.028Z,17.52
2018-07-11T07:16:59.212Z,17.59
2018-07-11T07:19:27.484Z,17.48
2018-07-11T07:21:55.784Z,17.46
2018-07-11T07:24:23.991Z,17.48
2018-07-11T07:26:52.240Z,17.51
2018-07-11T07:29:20.503Z,17.56
2018-07-11T07:31:48.686Z,17.60
2018-07-11T07:34:16.957Z,17.69
2018-07-11T07:37:15.862Z,17.63
2018-07-11T07:52:16.302Z,17.57
2018-07-11T07:54:44.590Z,17.58
2018-07-11T07:57:13.040Z,17.57
2018-07-11T07:59:41.356Z,17.64
2018-07-11T08:02:09.573Z,17.77
2018-07-11T08:04:37.786Z,17.84
2018-07-11T08:07:06.116Z,17.85
2018-07-11T08:09:34.316Z,17.87
2018-07-11T08:12:02.618Z,17.88
2018-07-11T08:14:30.856Z,17.86
2018-07-11T08:16:59.117Z,17.95
2018-07-11T08:19:27.314Z,17.93
2018-07-11T08:21:55.545Z,17.82
2018-07-11T08:24:35.216Z,17.85
2018-07-11T08:27:15.362Z,17.86
2018-07-11T08:30:04.956Z,17.73
2018-07-11T08:32:44.613Z,17.76
2018-07-11T08:35:23.862Z,17.86
2018-07-11T08:38:14.791Z,18.08
2018-07-11T08:40:59.475Z,18.12
2018-07-11T08:44:50.251Z,18.13
2018-07-11T08:47:47.820Z,18.25
2018-07-11T08:51:42.519Z,18.31
2018-07-11T08:54:23.184Z,18.26
2018-07-11T08:57:03.091Z,18.18
2018-07-11T08:59:39.936Z,18.16
2018-07-11T09:02:29.658Z,18.01
2018-07-11T09:05:09.982Z,18.15
2018-07-11T09:08:48.841Z,18.24
2018-07-11T09:11:29.285Z,18.23
2018-07-11T09:14:13.555Z,18.01
2018-07-11T09:17:07.636Z,18.05
2018-07-11T09:22:14.760Z,18.34
2018-07-11T09:24:44.407Z,18.32
2018-07-11T09:27:13.197Z,18.16
2018-07-11T09:29:42.417Z,18.30
2018-07-11T09:32:11.495Z,18.19
2018-07-11T09:34:39.794Z,18.33
2018-07-11T09:37:08.022Z,18.35
2018-07-11T09:39:36.280Z,18.14
2018-07-11T09:42:04.745Z,18.23
2018-07-11T09:46:10.140Z,18.23
2018-07-11T09:48:38.663Z,18.17
2018-07-11T09:51:07.352Z,18.24
2018-07-11T09:53:44.913Z,18.22
2018-07-11T09:56:46.609Z,18.12
2018-07-11T09:59:15.969Z,18.06
2018-07-11T10:01:44.331Z,18.34
2018-07-11T10:04:13.508Z,18.48
2018-07-11T10:06:41.764Z,18.61
2018-07-11T10:09:09.985Z,18.59
2018-07-11T10:11:38.249Z,18.70
2018-07-11T10:14:06.536Z,18.71
2018-07-11T10:16:34.811Z,18.64
2018-07-11T10:19:04.975Z,18.69
2018-07-11T10:21:34.273Z,18.74
2018-07-11T10:24:02.657Z,18.83
2018-07-11T10:26:31.096Z,18.87
2018-07-11T10:28:59.371Z,18.80
2018-07-11T10:31:28.480Z,18.70
2018-07-11T10:33:57.007Z,18.93
2018-07-11T10:36:25.237Z,19.12
2018-07-11T10:38:53.536Z,19.08
2018-07-11T10:41:21.751Z,19.22
2018-07-11T10:43:50.040Z,19.10
2018-07-11T10:46:18.322Z,18.95
2018-07-11T10:48:46.542Z,19.12
2018-07-11T10:51:14.783Z,19.16
2018-07-11T10:53:42.985Z,19.16
2018-07-11T10:56:11.202Z,19.20
2018-07-11T10:58:39.493Z,19.33
2018-07-11T11:01:07.765Z,19.42
2018-07-11T11:03:35.990Z,19.42
2018-07-11T11:06:43.697Z,19.57
2018-07-11T11:09:11.962Z,19.56
2018-07-11T11:11:40.188Z,19.66
2018-07-11T11:14:08.454Z,19.82
2018-07-11T11:16:36.718Z,19.79
2018-07-11T11:19:04.941Z,19.79
2018-07-11T11:21:33.192Z,19.80
2018-07-11T11:24:01.388Z,19.84
2018-07-11T11:26:29.617Z,19.93
2018-07-11T11:28:57.798Z,19.86
2018-07-11T11:31:26.021Z,20.06
2018-07-11T11:33:54.240Z,20.05
2018-07-11T11:36:22.537Z,19.95
2018-07-11T11:38:50.852Z,20.13
2018-07-11T11:41:19.092Z,20.22
2018-07-11T11:43:50.467Z,20.19
2018-07-11T11:46:18.828Z,20.01
2018-07-11T11:48:47.167Z,20.05
2018-07-11T11:51:15.500Z,19.92
2018-07-11T11:53:43.777Z,19.96
2018-07-11T11:56:12.010Z,20.01
2018-07-11T11:58:40.349Z,20.22
2018-07-11T12:01:08.500Z,20.41
2018-07-11T12:03:36.781Z,20.38
2018-07-11T12:06:05.028Z,20.37
2018-07-11T12:08:33.287Z,20.34
2018-07-11T12:11:01.568Z,20.21
2018-07-11T12:13:29.813Z,20.23
2018-07-11T12:15:58.059Z,20.30
2018-07-11T12:18:26.688Z,20.14
2018-07-11T12:20:57.221Z,20.30
2018-07-11T12:23:25.613Z,19.97
2018-07-11T12:26:03.754Z,20.14
2018-07-11T12:28:32.030Z,19.98
2018-07-11T12:31:56.706Z,20.02
2018-07-11T12:34:51.722Z,20.14
2018-07-11T12:37:20.685Z,20.19
2018-07-11T12:39:49.345Z,20.15
2018-07-11T12:42:18.121Z,20.04
2018-07-11T12:44:46.370Z,20.13
2018-07-11T12:47:19.845Z,20.21
2018-07-11T12:49:48.055Z,20.07
2018-07-11T12:52:16.334Z,20.16
2018-07-11T12:54:44.643Z,20.14
2018-07-11T12:57:13.042Z,19.97
2018-07-11T12:59:41.345Z,19.90
2018-07-11T13:02:09.827Z,20.07
2018-07-11T13:04:38.023Z,19.94
2018-07-11T13:07:06.573Z,20.07
2018-07-11T13:09:34.919Z,19.86
2018-07-11T13:12:03.218Z,20.06
2018-07-11T13:14:31.415Z,20.07
2018-07-11T13:16:59.665Z,20.03
2018-07-11T13:19:28.523Z,19.90
2018-07-11T13:21:56.819Z,19.94
2018-07-11T13:24:25.046Z,19.95
2018-07-11T13:26:53.333Z,19.89
2018-07-11T13:29:21.569Z,19.82
2018-07-11T13:31:49.901Z,19.85
2018-07-11T13:34:18.173Z,19.91
2018-07-11T13:36:46.607Z,19.86
2018-07-11T13:39:19.669Z,19.82
2018-07-11T13:41:48.815Z,19.65
2018-07-11T13:44:17.241Z,19.48
2018-07-11T13:51:06.753Z,19.74
2018-07-11T13:53:35.656Z,19.44
2018-07-11T13:56:03.882Z,19.47
2018-07-11T13:58:32.100Z,19.61
2018-07-11T14:01:00.421Z,19.65
2018-07-11T14:03:28.626Z,19.57
2018-07-11T14:05:56.920Z,19.49
2018-07-11T14:08:25.194Z,19.56
2018-07-11T14:10:53.465Z,19.47
2018-07-11T14:13:21.781Z,19.57
2018-07-11T14:15:50.046Z,19.61
2018-07-11T14:18:18.286Z,19.65
2018-07-11T14:20:46.480Z,19.44
2018-07-11T14:23:15.038Z,19.42
2018-07-11T14:25:43.278Z,19.37
2018-07-11T14:28:11.572Z,19.16
2018-07-11T14:30:40.076Z,19.39
2018-07-11T14:33:09.714Z,19.03
2018-07-11T14:35:37.956Z,19.40
2018-07-11T14:38:06.188Z,19.16
2018-07-11T14:40:34.384Z,19.10
2018-07-11T14:43:02.648Z,19.08
2018-07-11T14:45:32.915Z,19.26
2018-07-11T14:48:06.976Z,19.13
2018-07-11T14:50:35.442Z,19.43
2018-07-11T14:53:04.844Z,19.08
2018-07-11T14:55:33.124Z,18.93
2018-07-11T14:58:01.616Z,19.04
2018-07-11T15:00:29.861Z,18.98
2018-07-11T15:02:58.256Z,19.16
2018-07-11T15:05:26.530Z,19.16
2018-07-11T15:07:54.779Z,19.23
2018-07-11T15:10:23.419Z,19.21
2018-07-11T15:12:52.097Z,19.33
2018-07-11T15:15:20.498Z,19.15
2018-07-11T15:17:48.723Z,19.29
2018-07-11T15:20:17.014Z,19.31
2018-07-11T15:22:45.298Z,19.19
2018-07-11T15:25:13.591Z,18.95
2018-07-11T15:27:41.828Z,18.96
2018-07-11T15:30:10.090Z,19.28
2018-07-11T15:32:38.378Z,19.10
2018-07-11T15:35:06.998Z,19.24
2018-07-11T15:37:34.885Z,19.22
2018-07-11T15:40:04.049Z,19.27
2018-07-11T15:42:32.312Z,19.22
2018-07-11T15:45:00.578Z,19.26
2018-07-11T15:47:29.287Z,19.12
2018-07-11T15:49:57.635Z,18.96
2018-07-11T15:52:26.658Z,19.09
2018-07-11T15:54:57.236Z,19.26
2018-07-11T15:57:32.264Z,19.21
2018-07-11T16:00:09.561Z,19.10
2018-07-11T16:02:43.420Z,19.37
2018-07-11T16:05:14.015Z,19.32
2018-07-11T16:07:44.773Z,19.35
2018-07-11T16:10:12.996Z,19.24
2018-07-11T16:12:41.328Z,19.19
2018-07-11T16:15:09.692Z,19.13
2018-07-11T16:17:38.021Z,19.28
2018-07-11T16:20:06.300Z,19.25
2018-07-11T16:22:34.604Z,19.29
2018-07-11T16:25:03.232Z,19.35
2018-07-11T16:27:31.427Z,19.28
2018-07-11T16:29:59.665Z,19.36
2018-07-11T16:32:27.920Z,19.29
2018-07-11T16:34:56.203Z,19.39
2018-07-11T16:37:24.438Z,19.16
2018-07-11T16:39:53.490Z,19.14
2018-07-11T16:42:22.341Z,18.70
2018-07-11T16:44:51.903Z,18.91
2018-07-11T16:47:20.647Z,19.06
2018-07-11T16:49:50.132Z,19.13
2018-07-11T16:52:18.331Z,19.15
2018-07-11T16:54:46.642Z,19.07
2018-07-11T16:57:17.562Z,19.22
2018-07-11T16:59:56.435Z,19.33
2018-07-11T17:02:25.880Z,19.35
2018-07-11T17:04:55.716Z,19.27
2018-07-11T17:07:26.177Z,19.22
2018-07-11T17:09:56.703Z,19.10
2018-07-11T17:12:25.480Z,19.12
2018-07-11T17:14:57.798Z,19.26
2018-07-11T17:17:33.697Z,19.38
2018-07-11T17:20:10.276Z,19.39
2018-07-11T17:22:52.368Z,19.23
2018-07-11T17:25:22.419Z,19.23
2018-07-11T17:27:58.893Z,19.41
2018-07-11T17:30:30.625Z,19.20
2018-07-11T17:32:59.299Z,19.23
2018-07-11T17:35:27.641Z,19.33
2018-07-11T17:37:57.886Z,19.19
2018-07-11T17:40:26.125Z,19.02
2018-07-11T17:42:55.227Z,19.28
2018-07-11T17:45:23.522Z,19.32
2018-07-11T17:48:19.201Z,19.26
2018-07-11T17:50:47.580Z,19.25
2018-07-11T17:53:19.963Z,19.24
2018-07-11T17:55:57.435Z,19.07
2018-07-11T17:59:02.936Z,19.32
2018-07-11T18:01:40.570Z,19.30
2018-07-11T18:06:23.898Z,19.24
2018-07-11T18:09:11.465Z,19.35
2018-07-11T18:12:19.399Z,19.38
2018-07-11T18:15:02.568Z,19.37
2018-07-11T18:18:44.458Z,19.40
2018-07-11T18:21:23.835Z,19.38
2018-07-11T18:24:00.956Z,19.40
2018-07-11T18:26:41.628Z,19.22
2018-07-11T18:29:25.535Z,19.36
2018-07-11T18:33:07.233Z,19.47
2018-07-11T18:35:52.713Z,19.57
2018-07-11T18:38:28.886Z,19.53
2018-07-11T18:41:04.790Z,19.41
2018-07-11T18:43:53.110Z,19.31
2018-07-11T18:46:32.878Z,19.34
2018-07-11T18:49:08.548Z,19.43
2018-07-11T18:51:49.297Z,19.39
2018-07-11T18:54:27.250Z,19.45
2018-07-11T18:57:04.428Z,19.43
2018-07-11T18:59:58.271Z,19.55
2018-07-11T19:04:52.298Z,19.52
2018-07-11T19:07:28.463Z,19.36
2018-07-11T19:09:58.291Z,19.31
2018-07-11T19:12:28.473Z,19.01
2018-07-11T19:15:19.766Z,19.11
2018-07-11T19:17:56.887Z,18.83
2018-07-11T19:20:33.529Z,19.10
2018-07-11T19:23:17.340Z,19.21
2018-07-11T19:26:56.787Z,19.27
2018-07-11T19:29:34.820Z,19.21
2018-07-11T19:32:10.617Z,19.13
2018-07-11T19:34:45.407Z,18.90
2018-07-11T19:37:28.184Z,18.86
2018-07-11T19:40:14.348Z,18.97
2018-07-11T19:43:57.423Z,18.74
2018-07-11T19:46:32.337Z,18.70
2018-07-11T19:49:11.453Z,18.93
2018-07-11T19:52:48.918Z,18.99
2018-07-11T19:55:25.608Z,18.59
2018-07-11T19:57:53.870Z,18.89
2018-07-11T20:00:22.131Z,18.99
2018-07-11T20:02:50.373Z,18.97
2018-07-11T20:05:18.695Z,18.98
2018-07-11T20:07:47.029Z,18.99
2018-07-11T20:10:15.329Z,18.90
2018-07-11T20:12:43.630Z,19.00
2018-07-11T20:15:12.362Z,19.01
2018-07-11T20:17:40.867Z,19.02
2018-07-11T20:20:09.236Z,19.01
2018-07-11T20:22:37.572Z,19.02
2018-07-11T20:25:06.146Z,19.01
2018-07-11T20:27:34.381Z,18.98
2018-07-11T20:30:02.901Z,18.94
2018-07-11T20:32:31.209Z,18.97
2018-07-11T20:34:59.521Z,18.82
2018-07-11T20:37:27.734Z,18.82
2018-07-11T20:39:55.963Z,18.80
2018-07-11T20:42:24.186Z,18.77
2018-07-11T20:44:52.547Z,18.74
2018-07-11T20:47:20.802Z,18.77
2018-07-11T20:49:49.047Z,18.74
2018-07-11T20:59:54.520Z,18.49
2018-07-11T21:02:33.789Z,18.34
2018-07-11T21:05:19.828Z,18.45
2018-07-11T21:08:16.925Z,18.31
2018-07-11T21:10:59.483Z,18.38
2018-07-11T21:13:39.120Z,18.39
2018-07-11T21:18:26.291Z,18.37
2018-07-11T21:20:54.623Z,18.15
2018-07-11T21:23:23.151Z,18.16
2018-07-11T21:25:51.499Z,18.13
2018-07-11T21:28:19.814Z,18.12
2018-07-11T21:30:48.163Z,18.35
2018-07-11T21:33:16.395Z,18.16
2018-07-11T21:35:44.643Z,18.02
2018-07-11T21:38:12.897Z,18.09
2018-07-11T21:40:41.404Z,18.23
2018-07-11T21:43:09.805Z,18.24
2018-07-11T21:45:38.106Z,18.24
2018-07-11T21:48:07.101Z,18.07
2018-07-11T21:50:35.305Z,18.05
2018-07-11T21:53:03.541Z,17.90
2018-07-11T21:55:31.761Z,17.82
2018-07-11T21:58:00.612Z,17.97
2018-07-11T22:00:38.776Z,18.08
2018-07-11T22:03:08.341Z,18.12
2018-07-11T22:05:37.054Z,18.07
2018-07-11T22:08:08.312Z,18.11
2018-07-11T22:10:37.941Z,18.00
2018-07-11T22:13:06.415Z,18.25
2018-07-11T22:15:35.043Z,18.27
2018-07-11T22:18:14.691Z,18.33
2018-07-11T22:20:41.903Z,18.28
2018-07-11T22:23:09.090Z,18.34
2018-07-11T22:25:37.531Z,18.40
2018-07-11T22:28:05.332Z,18.45
2018-07-11T22:30:32.894Z,18.47
2018-07-11T22:33:00.358Z,18.34
2018-07-11T22:35:27.928Z,18.17
2018-07-11T22:37:55.160Z,18.20
2018-07-11T22:40:22.315Z,18.27
2018-07-11T22:42:49.646Z,18.06
2018-07-11T22:45:16.833Z,18.22
2018-07-11T22:47:44.043Z,18.22
2018-07-11T22:50:11.428Z,18.13
2018-07-11T22:52:38.658Z,18.25
2018-07-11T22:55:05.839Z,18.15
2018-07-11T22:57:33.021Z,18.04
2018-07-11T23:00:00.227Z,18.14
2018-07-11T23:02:27.381Z,17.81
2018-07-11T23:04:54.551Z,18.01
2018-07-11T23:07:21.734Z,17.99
2018-07-11T23:09:48.942Z,18.12
2018-07-11T23:12:16.144Z,18.11
2018-07-11T23:14:43.364Z,18.24
2018-07-11T23:17:10.572Z,18.20
2018-07-11T23:19:37.817Z,18.27
2018-07-11T23:22:05.029Z,18.24
2018-07-11T23:24:33.232Z,18.23
2018-07-11T23:27:00.446Z,18.17
2018-07-11T23:29:27.671Z,18.17
2018-07-11T23:31:55.004Z,18.26
2018-07-11T23:34:22.245Z,18.29
2018-07-11T23:36:49.590Z,18.23
2018-07-11T23:39:16.824Z,18.11
2018-07-11T23:41:44.015Z,18.07
2018-07-11T23:44:11.590Z,18.22
2018-07-11T23:46:38.774Z,18.23
2018-07-11T23:49:05.921Z,18.22
2018-07-11T23:51:33.234Z,18.23
2018-07-11T23:54:00.457Z,18.25
2018-07-11T23:56:27.742Z,18.14
2018-07-11T23:58:54.990Z,18.19
